createdAt,value
2023-03-01T00:01:22.177Z,103146.09
2023-03-01T00:03:49.862Z,103140.72
2023-03-01T00:06:17.878Z,103148.16
2023-03-01T00:08:45.238Z,103142.66
2023-03-01T00:11:25.701Z,103145.34
2023-03-01T00:13:57.104Z,103146.22
2023-03-01T00:16:29.254Z,103146.41
2023-03-01T00:19:00.756Z,103146.97
2023-03-01T00:21:28.848Z,103139.44
2023-03-01T00:23:56.283Z,103142.94
2023-03-01T00:26:24.635Z,103135.31
2023-03-01T00:28:52.192Z,103135.00
2023-03-01T00:31:24.794Z,103135.28
2023-03-01T00:33:58.876Z,103130.47
2023-03-01T00:36:29.625Z,103122.63
2023-03-01T00:38:57.829Z,103124.03
2023-03-01T00:41:29.484Z,103137.47
2023-03-01T00:43:58.303Z,103130.72
2023-03-01T00:46:30.433Z,103134.47
2023-03-01T00:48:58.002Z,103138.69
2023-03-01T00:51:28.440Z,103132.53
2023-03-01T00:53:58.941Z,103132.53
2023-03-01T00:56:26.103Z,103124.44
2023-03-01T00:58:53.558Z,103124.13
2023-03-01T01:01:23.683Z,103124.13
2023-03-01T01:03:53.676Z,103121.13
2023-03-01T01:06:29.625Z,103119.91
2023-03-01T01:08:57.934Z,103102.53
2023-03-01T01:11:27.678Z,103098.09
2023-03-01T01:13:55.199Z,103096.84
2023-03-01T01:16:24.417Z,103093.88
2023-03-01T01:18:52.339Z,103090.28
2023-03-01T01:21:21.834Z,103091.00
2023-03-01T01:23:49.426Z,103094.28
2023-03-01T01:26:25.853Z,103094.28
2023-03-01T01:28:53.896Z,103087.72
2023-03-01T01:31:24.424Z,103084.88
2023-03-01T01:33:52.169Z,103069.59
2023-03-01T01:36:19.563Z,103079.50
2023-03-01T01:38:46.761Z,103078.28
2023-03-01T01:41:14.531Z,103077.94
2023-03-01T01:43:47.705Z,103085.16
2023-03-01T01:46:20.397Z,103076.00
2023-03-01T01:48:51.038Z,103070.78
2023-03-01T01:51:26.608Z,103056.94
2023-03-01T01:54:00.164Z,103076.88
2023-03-01T01:56:29.041Z,103069.25
2023-03-01T01:58:57.079Z,103071.06
2023-03-01T02:01:24.506Z,103073.59
2023-03-01T02:03:52.370Z,103063.88
2023-03-01T02:06:40.488Z,103068.22
2023-03-01T02:09:15.347Z,103060.28
2023-03-01T02:11:44.175Z,103061.34
2023-03-01T02:14:11.806Z,103059.38
2023-03-01T02:16:39.026Z,103060.13
2023-03-01T02:19:07.233Z,103064.47
2023-03-01T02:22:01.822Z,103060.28
2023-03-01T02:25:04.539Z,103061.59
2023-03-01T02:27:41.636Z,103053.66
2023-03-01T02:30:09.372Z,103056.03
2023-03-01T02:32:36.528Z,103050.50
2023-03-01T02:35:07.468Z,103042.88
2023-03-01T02:37:36.953Z,103048.53
2023-03-01T02:40:12.454Z,103040.47
2023-03-01T02:42:49.650Z,103042.00
2023-03-01T02:45:16.886Z,103036.72
2023-03-01T02:47:43.903Z,103036.00
2023-03-01T02:50:36.659Z,103031.09
2023-03-01T02:53:11.912Z,103035.84
2023-03-01T02:55:39.642Z,103028.81
2023-03-01T02:58:06.804Z,103030.28
2023-03-01T03:00:47.854Z,103036.28
2023-03-01T03:03:17.697Z,103026.84
2023-03-01T03:05:45.363Z,103031.19
2023-03-01T03:08:12.725Z,103034.88
2023-03-01T03:10:41.656Z,103024.72
2023-03-01T03:13:12.014Z,103019.34
2023-03-01T03:15:40.482Z,103018.59
2023-03-01T03:18:10.846Z,103018.75
2023-03-01T03:20:40.547Z,103011.16
2023-03-01T03:23:07.707Z,103006.06
2023-03-01T03:25:38.524Z,103009.34
2023-03-01T03:28:10.454Z,103013.50
2023-03-01T03:30:42.668Z,103010.34
2023-03-01T03:33:13.430Z,103012.97
2023-03-01T03:35:44.175Z,103010.16
2023-03-01T03:38:18.826Z,103001.72
2023-03-01T03:40:48.337Z,103016.84
2023-03-01T03:43:18.487Z,103010.69
2023-03-01T03:45:47.240Z,103016.38
2023-03-01T03:48:15.121Z,103006.66
2023-03-01T03:50:42.945Z,103002.91
2023-03-01T03:53:12.637Z,103002.25
2023-03-01T03:55:40.492Z,103001.59
2023-03-01T03:58:10.854Z,102996.22
2023-03-01T04:00:43.692Z,102998.59
2023-03-01T04:03:12.566Z,103006.03
2023-03-01T04:05:40.833Z,103010.13
2023-03-01T04:08:09.186Z,103001.13
2023-03-01T04:10:38.716Z,103000.06
2023-03-01T04:13:07.797Z,102997.38
2023-03-01T04:15:35.594Z,103001.38
2023-03-01T04:18:02.866Z,102992.06
2023-03-01T04:20:34.567Z,103003.75
2023-03-01T04:23:16.623Z,103010.47
2023-03-01T04:25:55.792Z,103015.53
2023-03-01T04:28:28.634Z,103004.50
2023-03-01T04:30:58.910Z,103006.84
2023-03-01T04:33:27.327Z,103012.66
2023-03-01T04:35:54.566Z,103014.31
2023-03-01T04:38:22.296Z,102995.78
2023-03-01T04:40:49.504Z,103008.28
2023-03-01T04:43:16.622Z,103003.63
2023-03-01T04:45:43.921Z,102999.88
2023-03-01T04:48:11.039Z,102997.72
2023-03-01T04:50:38.075Z,102995.75
2023-03-01T04:53:05.153Z,102995.91
2023-03-01T04:55:32.617Z,102992.66
2023-03-01T04:57:59.822Z,102972.78
2023-03-01T05:00:27.574Z,102978.00
2023-03-01T05:02:57.986Z,102968.78
2023-03-01T05:05:29.728Z,102962.66
2023-03-01T05:08:00.254Z,102967.72
2023-03-01T05:10:31.252Z,102957.25
2023-03-01T05:12:59.574Z,102961.28
2023-03-01T05:15:29.093Z,102960.03
2023-03-01T05:18:00.047Z,102958.50
2023-03-01T05:20:29.697Z,102955.47
2023-03-01T05:22:59.671Z,102944.25
2023-03-01T05:25:28.233Z,102943.94
2023-03-01T05:27:55.331Z,102940.09
2023-03-01T05:30:23.003Z,102943.75
2023-03-01T05:32:57.342Z,102938.03
2023-03-01T05:35:24.524Z,102926.38
2023-03-01T05:37:52.236Z,102935.38
2023-03-01T05:40:24.147Z,102934.78
2023-03-01T05:42:58.002Z,102933.13
2023-03-01T05:45:27.492Z,102926.28
2023-03-01T05:47:56.000Z,102927.53
2023-03-01T05:50:32.795Z,102929.28
2023-03-01T05:53:03.664Z,102921.13
2023-03-01T05:55:32.014Z,102921.13
2023-03-01T05:58:01.154Z,102923.69
2023-03-01T06:00:30.202Z,102920.81
2023-03-01T06:02:59.203Z,102919.44
2023-03-01T06:05:27.520Z,102921.97
2023-03-01T06:07:55.143Z,102918.84
2023-03-01T06:10:25.798Z,102915.97
2023-03-01T06:12:56.547Z,102913.88
2023-03-01T06:15:25.397Z,102894.00
2023-03-01T06:17:57.098Z,102916.31
2023-03-01T06:20:29.148Z,102909.09
2023-03-01T06:22:57.538Z,102923.50
2023-03-01T06:25:29.051Z,102919.34
2023-03-01T06:27:56.230Z,102920.06
2023-03-01T06:30:26.149Z,102930.22
2023-03-01T06:32:53.694Z,102918.69
2023-03-01T06:35:21.024Z,102914.66
2023-03-01T06:37:48.939Z,102912.56
2023-03-01T06:40:16.357Z,102926.03
2023-03-01T06:42:45.131Z,102926.03
2023-03-01T06:45:12.670Z,102922.03
2023-03-01T06:47:40.029Z,102919.16
2023-03-01T06:50:07.378Z,102920.81
2023-03-01T06:52:34.487Z,102931.66
2023-03-01T06:55:02.063Z,102921.97
2023-03-01T06:57:29.556Z,102917.47
2023-03-01T06:59:57.178Z,102928.41
2023-03-01T07:02:24.545Z,102921.13
2023-03-01T07:04:52.934Z,102922.38
2023-03-01T07:07:20.124Z,102919.56
2023-03-01T07:09:47.747Z,102914.66
2023-03-01T07:12:14.887Z,102928.03
2023-03-01T07:14:42.170Z,102901.56
2023-03-01T07:17:09.238Z,102920.78
2023-03-01T07:19:36.484Z,102928.84
2023-03-01T07:22:05.220Z,102924.56
2023-03-01T07:24:32.730Z,102931.19
2023-03-01T07:26:59.775Z,102931.84
2023-03-01T07:29:27.379Z,102921.53
2023-03-01T07:31:54.551Z,102917.69
2023-03-01T07:34:21.989Z,102937.91
2023-03-01T07:36:49.148Z,102928.22
2023-03-01T07:39:18.499Z,102942.50
2023-03-01T07:41:45.750Z,102933.09
2023-03-01T07:44:12.984Z,102950.81
2023-03-01T07:46:40.108Z,102936.78
2023-03-01T07:49:07.290Z,102941.88
2023-03-01T07:51:34.310Z,102942.34
2023-03-01T07:54:01.497Z,102940.75
2023-03-01T07:56:29.178Z,102931.22
2023-03-01T07:58:56.905Z,102946.31
2023-03-01T08:01:24.867Z,102942.16
2023-03-01T08:03:52.022Z,102944.13
2023-03-01T08:06:19.946Z,102933.22
2023-03-01T08:08:47.096Z,102951.47
2023-03-01T08:11:15.774Z,102939.63
2023-03-01T08:13:44.171Z,102946.69
2023-03-01T08:16:13.925Z,102949.97
2023-03-01T08:18:41.676Z,102930.44
2023-03-01T08:21:12.076Z,102944.47
2023-03-01T08:23:40.344Z,102940.31
2023-03-01T08:26:08.821Z,102943.28
2023-03-01T08:28:36.395Z,102944.31
2023-03-01T08:31:03.867Z,102947.78
2023-03-01T08:33:31.055Z,102936.09
2023-03-01T08:36:07.828Z,102929.38
2023-03-01T08:38:36.225Z,102934.28
2023-03-01T08:41:04.341Z,102929.16
2023-03-01T08:43:31.947Z,102928.25
2023-03-01T08:45:59.184Z,102930.94
2023-03-01T08:48:28.448Z,102932.69
2023-03-01T08:50:55.970Z,102926.94
2023-03-01T08:53:23.215Z,102917.31
2023-03-01T08:55:50.813Z,102923.09
2023-03-01T08:58:18.022Z,102921.41
2023-03-01T09:00:45.536Z,102921.78
2023-03-01T09:03:12.584Z,102905.19
2023-03-01T09:05:39.713Z,102913.81
2023-03-01T09:08:06.859Z,102903.06
2023-03-01T09:10:33.993Z,102912.13
2023-03-01T09:13:00.994Z,102910.25
2023-03-01T09:15:28.837Z,102905.97
2023-03-01T09:17:55.897Z,102904.38
2023-03-01T09:20:23.350Z,102893.19
2023-03-01T09:22:50.451Z,102892.41
2023-03-01T09:25:17.704Z,102889.88
2023-03-01T09:27:44.770Z,102887.03
2023-03-01T09:30:12.342Z,102875.47
2023-03-01T09:32:43.665Z,102880.22
2023-03-01T09:35:10.848Z,102882.16
2023-03-01T09:37:38.747Z,102879.75
2023-03-01T09:40:07.599Z,102863.88
2023-03-01T09:42:37.220Z,102877.84
2023-03-01T09:45:34.420Z,102870.41
2023-03-01T09:48:03.001Z,102865.53
2023-03-01T09:50:36.435Z,102869.13
2023-03-01T09:53:10.199Z,102871.78
2023-03-01T09:56:00.428Z,102880.22
2023-03-01T09:58:40.897Z,102873.25
2023-03-01T10:01:32.686Z,102873.13
2023-03-01T10:04:28.808Z,102868.47
2023-03-01T10:07:01.603Z,102877.66
2023-03-01T10:09:33.295Z,102876.38
2023-03-01T10:12:03.126Z,102861.41
2023-03-01T10:14:32.874Z,102869.16
2023-03-01T10:17:13.197Z,102872.09
2023-03-01T10:19:43.617Z,102870.66
2023-03-01T10:22:23.646Z,102850.47
2023-03-01T10:24:54.230Z,102860.28
2023-03-01T10:27:28.813Z,102847.94
2023-03-01T10:30:23.611Z,102855.44
2023-03-01T10:32:54.746Z,102834.16
2023-03-01T10:35:26.084Z,102852.06
2023-03-01T10:38:06.553Z,102851.50
2023-03-01T10:40:35.321Z,102849.28
2023-03-01T10:43:07.225Z,102849.09
2023-03-01T10:45:37.668Z,102839.75
2023-03-01T10:48:04.701Z,102849.59
2023-03-01T10:50:31.881Z,102843.66
2023-03-01T10:53:05.172Z,102833.63
2023-03-01T10:55:40.689Z,102817.25
2023-03-01T10:58:09.255Z,102826.66
2023-03-01T11:01:01.190Z,102819.84
2023-03-01T11:03:37.744Z,102808.56
2023-03-01T11:06:23.140Z,102807.47
2023-03-01T11:08:51.984Z,102792.34
2023-03-01T11:11:32.927Z,102795.91
2023-03-01T11:14:25.912Z,102800.25
2023-03-01T11:17:03.613Z,102791.91
2023-03-01T11:19:30.959Z,102792.25
2023-03-01T11:22:02.987Z,102781.84
2023-03-01T11:24:45.996Z,102788.56
2023-03-01T11:27:41.829Z,102782.63
2023-03-01T11:30:17.651Z,102781.41
2023-03-01T11:32:52.344Z,102786.22
2023-03-01T11:35:24.442Z,102784.56
2023-03-01T11:38:12.232Z,102786.44
2023-03-01T11:40:54.312Z,102783.22
2023-03-01T11:43:36.712Z,102769.16
2023-03-01T11:46:17.627Z,102769.72
2023-03-01T11:49:02.764Z,102774.31
2023-03-01T11:51:54.569Z,102776.06
2023-03-01T11:54:49.308Z,102767.91
2023-03-01T11:57:43.979Z,102759.53
2023-03-01T12:00:45.536Z,102756.44
2023-03-01T12:03:22.404Z,102750.88
2023-03-01T12:06:06.395Z,102757.53
2023-03-01T12:08:39.077Z,102755.31
2023-03-01T12:11:37.864Z,102750.38
2023-03-01T12:14:32.680Z,102758.66
2023-03-01T12:17:18.595Z,102755.06
2023-03-01T12:19:54.468Z,102758.66
2023-03-01T12:22:35.519Z,102764.66
2023-03-01T12:25:21.890Z,102761.22
2023-03-01T12:27:56.083Z,102748.38
2023-03-01T12:30:23.098Z,102753.25
2023-03-01T12:33:06.549Z,102738.75
2023-03-01T12:35:41.420Z,102737.72
2023-03-01T12:38:35.669Z,102731.03
2023-03-01T12:41:12.822Z,102720.16
2023-03-01T12:44:08.834Z,102732.75
2023-03-01T12:46:42.869Z,102732.88
2023-03-01T12:49:17.366Z,102732.19
2023-03-01T12:51:59.878Z,102726.28
2023-03-01T12:54:31.544Z,102722.09
2023-03-01T12:57:09.549Z,102708.97
2023-03-01T13:00:16.037Z,102711.75
2023-03-01T13:03:06.204Z,102687.97
2023-03-01T13:06:17.535Z,102689.22
2023-03-01T13:09:10.360Z,102693.66
2023-03-01T13:11:37.549Z,102701.47
2023-03-01T13:14:24.492Z,102679.25
2023-03-01T13:16:55.781Z,102681.13
2023-03-01T13:19:30.693Z,102668.47
2023-03-01T13:22:01.046Z,102667.31
2023-03-01T13:24:39.695Z,102659.06
2023-03-01T13:27:06.715Z,102667.47
2023-03-01T13:30:06.587Z,102666.38
2023-03-01T13:32:44.524Z,102645.44
2023-03-01T13:35:21.051Z,102655.88
2023-03-01T13:37:48.222Z,102657.19
2023-03-01T13:40:19.599Z,102650.38
2023-03-01T13:43:05.688Z,102642.66
2023-03-01T13:45:41.592Z,102642.19
2023-03-01T13:48:11.372Z,102645.56
2023-03-01T13:50:49.160Z,102627.25
2023-03-01T13:53:20.469Z,102630.03
2023-03-01T13:55:52.064Z,102626.69
2023-03-01T13:58:26.121Z,102620.31
2023-03-01T14:01:00.265Z,102620.97
2023-03-01T14:03:28.766Z,102614.84
2023-03-01T14:06:20.364Z,102609.41
2023-03-01T14:08:51.698Z,102607.13
2023-03-01T14:11:36.043Z,102600.44
2023-03-01T14:14:02.910Z,102590.31
2023-03-01T14:16:32.824Z,102590.31
2023-03-01T14:19:33.164Z,102581.72
2023-03-01T14:22:23.336Z,102579.31
2023-03-01T14:24:53.556Z,102551.03
2023-03-01T14:27:21.661Z,102570.50
2023-03-01T14:30:02.035Z,102575.13
2023-03-01T14:32:31.816Z,102555.63
2023-03-01T14:35:00.923Z,102556.41
2023-03-01T14:37:33.036Z,102566.91
2023-03-01T14:40:03.288Z,102562.47
2023-03-01T14:42:35.663Z,102544.09
2023-03-01T14:45:05.475Z,102550.50
2023-03-01T14:47:35.669Z,102550.06
2023-03-01T14:50:08.825Z,102535.31
2023-03-01T14:52:39.552Z,102553.09
2023-03-01T14:55:17.545Z,102555.03
2023-03-01T14:57:47.680Z,102547.78
2023-03-01T15:00:20.917Z,102548.84
2023-03-01T15:02:53.653Z,102545.38
2023-03-01T15:05:34.457Z,102541.53
2023-03-01T15:08:04.689Z,102542.25
2023-03-01T15:10:36.852Z,102531.63
2023-03-01T15:13:34.439Z,102538.34
2023-03-01T15:16:12.974Z,102528.53
2023-03-01T15:18:49.272Z,102522.09
2023-03-01T15:21:33.392Z,102534.25
2023-03-01T15:24:20.541Z,102529.84
2023-03-01T15:27:02.892Z,102531.13
2023-03-01T15:29:34.378Z,102538.22
2023-03-01T15:32:07.653Z,102525.41
2023-03-01T15:34:40.119Z,102522.13
2023-03-01T15:37:45.736Z,102524.16
2023-03-01T15:40:32.734Z,102518.19
2023-03-01T15:43:07.543Z,102523.66
2023-03-01T15:45:35.113Z,102516.28
2023-03-01T15:48:05.150Z,102513.81
2023-03-01T15:50:35.060Z,102518.81
2023-03-01T15:53:07.536Z,102520.84
2023-03-01T15:55:34.670Z,102524.22
2023-03-01T15:58:15.874Z,102515.72
2023-03-01T16:00:58.171Z,102523.06
2023-03-01T16:03:27.816Z,102510.91
2023-03-01T16:05:55.343Z,102520.75
2023-03-01T16:08:22.445Z,102507.19
2023-03-01T16:10:52.100Z,102502.91
2023-03-01T16:13:19.392Z,102506.34
2023-03-01T16:15:46.413Z,102498.38
2023-03-01T16:18:13.510Z,102496.31
2023-03-01T16:20:41.161Z,102502.31
2023-03-01T16:23:11.183Z,102510.00
2023-03-01T16:25:38.745Z,102507.13
2023-03-01T16:28:10.058Z,102494.50
2023-03-01T16:30:40.840Z,102509.81
2023-03-01T16:33:26.892Z,102492.50
2023-03-01T16:35:57.576Z,102507.38
2023-03-01T16:38:24.736Z,102491.38
2023-03-01T16:40:53.294Z,102506.97
2023-03-01T16:43:20.737Z,102506.25
2023-03-01T16:45:47.916Z,102500.66
2023-03-01T16:48:15.259Z,102501.91
2023-03-01T16:50:42.391Z,102503.97
2023-03-01T16:53:09.572Z,102517.00
2023-03-01T16:55:37.004Z,102500.94
2023-03-01T16:58:05.110Z,102516.53
2023-03-01T17:00:32.662Z,102493.00
2023-03-01T17:02:59.883Z,102499.97
2023-03-01T17:05:27.441Z,102503.50
2023-03-01T17:07:57.633Z,102510.44
2023-03-01T17:10:24.715Z,102515.66
2023-03-01T17:12:52.166Z,102511.38
2023-03-01T17:15:19.840Z,102509.66
2023-03-01T17:17:52.491Z,102511.75
2023-03-01T17:20:19.914Z,102512.91
2023-03-01T17:22:47.288Z,102514.84
2023-03-01T17:25:14.446Z,102521.13
2023-03-01T17:27:41.666Z,102516.28
2023-03-01T17:30:10.860Z,102512.28
2023-03-01T17:32:38.223Z,102515.22
2023-03-01T17:35:06.308Z,102511.31
2023-03-01T17:37:33.568Z,102488.66
2023-03-01T17:40:00.632Z,102514.63
2023-03-01T17:42:30.581Z,102510.72
2023-03-01T17:44:58.464Z,102503.19
2023-03-01T17:47:25.570Z,102510.06
2023-03-01T17:49:53.160Z,102510.41
2023-03-01T17:52:23.632Z,102504.19
2023-03-01T17:54:50.833Z,102487.72
2023-03-01T17:57:17.981Z,102504.34
2023-03-01T17:59:45.077Z,102488.06
2023-03-01T18:02:12.921Z,102505.22
2023-03-01T18:04:40.131Z,102503.25
2023-03-01T18:07:07.099Z,102509.91
2023-03-01T18:09:34.139Z,102511.13
2023-03-01T18:12:01.307Z,102514.25
2023-03-01T18:14:34.073Z,102515.72
2023-03-01T18:17:04.288Z,102525.84
2023-03-01T18:19:31.616Z,102518.59
2023-03-01T18:21:58.776Z,102526.06
2023-03-01T18:24:26.009Z,102527.59
2023-03-01T18:26:53.261Z,102517.94
2023-03-01T18:29:20.339Z,102528.06
2023-03-01T18:31:47.707Z,102532.06
2023-03-01T18:34:15.012Z,102534.50
2023-03-01T18:36:47.973Z,102541.63
2023-03-01T18:39:24.020Z,102545.53
2023-03-01T18:41:51.358Z,102549.38
2023-03-01T18:44:18.680Z,102535.78
2023-03-01T18:46:48.972Z,102530.88
2023-03-01T18:49:16.170Z,102549.66
2023-03-01T18:51:43.626Z,102551.88
2023-03-01T18:54:12.946Z,102529.72
2023-03-01T18:56:40.226Z,102552.31
2023-03-01T18:59:07.800Z,102540.97
2023-03-01T19:01:37.322Z,102546.09
2023-03-01T19:04:05.166Z,102548.81
2023-03-01T19:06:34.541Z,102550.03
2023-03-01T19:09:01.788Z,102557.69
2023-03-01T19:11:30.937Z,102554.66
2023-03-01T19:14:03.690Z,102556.72
2023-03-01T19:16:33.141Z,102553.97
2023-03-01T19:19:02.422Z,102550.13
2023-03-01T19:21:32.160Z,102550.56
2023-03-01T19:23:59.865Z,102553.66
2023-03-01T19:26:31.911Z,102551.09
2023-03-01T19:28:59.417Z,102549.19
2023-03-01T19:31:33.078Z,102550.50
2023-03-01T19:34:10.634Z,102552.56
2023-03-01T19:36:41.697Z,102539.84
2023-03-01T19:39:10.285Z,102545.72
2023-03-01T19:41:37.319Z,102536.56
2023-03-01T19:44:05.886Z,102529.41
2023-03-01T19:46:34.167Z,102524.94
2023-03-01T19:49:03.265Z,102528.91
2023-03-01T19:51:33.361Z,102524.25
2023-03-01T19:54:00.496Z,102542.63
2023-03-01T19:56:31.879Z,102532.81
2023-03-01T19:59:00.562Z,102537.91
2023-03-01T20:01:32.845Z,102541.00
2023-03-01T20:04:04.072Z,102543.19
2023-03-01T20:06:32.045Z,102535.16
2023-03-01T20:09:02.355Z,102516.28
2023-03-01T20:11:34.078Z,102533.75
2023-03-01T20:14:01.158Z,102537.72
2023-03-01T20:16:28.893Z,102529.94
2023-03-01T20:18:57.798Z,102525.00
2023-03-01T20:21:25.150Z,102525.75
2023-03-01T20:23:53.201Z,102534.28
2023-03-01T20:26:22.029Z,102538.25
2023-03-01T20:28:51.994Z,102525.25
2023-03-01T20:31:20.856Z,102536.88
2023-03-01T20:33:48.122Z,102534.97
2023-03-01T20:36:15.620Z,102524.22
2023-03-01T20:38:42.839Z,102526.66
2023-03-01T20:41:12.409Z,102522.72
2023-03-01T20:43:41.362Z,102526.94
2023-03-01T20:46:11.846Z,102532.31
2023-03-01T20:48:43.217Z,102522.72
2023-03-01T20:51:12.132Z,102534.69
2023-03-01T20:53:39.803Z,102524.13
2023-03-01T20:56:09.443Z,102527.81
2023-03-01T20:58:36.776Z,102519.66
2023-03-01T21:01:05.931Z,102515.47
2023-03-01T21:03:33.907Z,102526.44
2023-03-01T21:06:03.178Z,102530.63
2023-03-01T21:08:30.856Z,102528.59
2023-03-01T21:11:01.058Z,102520.56
2023-03-01T21:13:29.678Z,102504.47
2023-03-01T21:16:00.803Z,102521.97
2023-03-01T21:18:32.673Z,102520.94
2023-03-01T21:21:01.795Z,102524.88
2023-03-01T21:23:30.672Z,102529.88
2023-03-01T21:26:01.660Z,102530.63
2023-03-01T21:28:32.544Z,102527.97
2023-03-01T21:31:15.065Z,102524.00
2023-03-01T21:33:48.274Z,102536.50
2023-03-01T21:36:16.836Z,102526.66
2023-03-01T21:38:46.243Z,102523.97
2023-03-01T21:41:14.550Z,102524.59
2023-03-01T21:43:43.284Z,102523.72
2023-03-01T21:46:14.127Z,102524.09
2023-03-01T21:48:44.261Z,102529.84
2023-03-01T21:51:14.912Z,102533.03
2023-03-01T21:53:43.202Z,102528.69
2023-03-01T21:56:15.417Z,102535.69
2023-03-01T21:58:42.512Z,102540.03
2023-03-01T22:01:13.555Z,102528.41
2023-03-01T22:03:47.001Z,102532.88
2023-03-01T22:06:34.120Z,102533.50
2023-03-01T22:09:05.909Z,102535.66
2023-03-01T22:11:35.480Z,102540.50
2023-03-01T22:14:04.620Z,102539.09
2023-03-01T22:16:34.253Z,102531.66
2023-03-01T22:19:03.255Z,102527.72
2023-03-01T22:21:30.483Z,102533.59
2023-03-01T22:23:58.621Z,102528.72
2023-03-01T22:26:31.976Z,102531.28
2023-03-01T22:29:02.225Z,102520.84
2023-03-01T22:31:29.863Z,102524.03
2023-03-01T22:33:58.673Z,102530.88
2023-03-01T22:36:27.490Z,102524.78
2023-03-01T22:39:00.087Z,102525.66
2023-03-01T22:41:32.882Z,102531.44
2023-03-01T22:43:59.974Z,102537.00
2023-03-01T22:46:29.536Z,102534.22
2023-03-01T22:48:57.544Z,102535.72
2023-03-01T22:51:30.412Z,102534.81
2023-03-01T22:54:00.537Z,102531.78
2023-03-01T22:56:30.691Z,102532.53
2023-03-01T22:59:03.789Z,102530.75
2023-03-01T23:01:31.360Z,102520.69
2023-03-01T23:03:58.991Z,102515.47
2023-03-01T23:06:26.092Z,102511.75
2023-03-01T23:08:56.277Z,102522.81
2023-03-01T23:11:25.748Z,102525.66
2023-03-01T23:13:54.185Z,102525.38
2023-03-01T23:16:27.768Z,102523.63
2023-03-01T23:18:56.046Z,102516.72
2023-03-01T23:21:23.588Z,102524.38
2023-03-01T23:23:51.055Z,102528.72
2023-03-01T23:26:18.978Z,102532.00
2023-03-01T23:28:47.268Z,102532.78
2023-03-01T23:31:15.349Z,102523.34
2023-03-01T23:33:44.980Z,102523.84
2023-03-01T23:36:22.390Z,102522.31
2023-03-01T23:38:52.441Z,102522.19
2023-03-01T23:41:23.257Z,102525.34
2023-03-01T23:43:52.717Z,102525.34
2023-03-01T23:46:21.750Z,102528.38
2023-03-01T23:48:49.292Z,102518.19
2023-03-01T23:51:17.892Z,102528.94
2023-03-01T23:53:54.511Z,102518.47
2023-03-01T23:56:28.940Z,102515.81
2023-03-01T23:58:58.826Z,102518.81
